createdAt,value
2018-03-01T00:02:03.918Z,5.40
2018-03-01T00:04:31.610Z,7.83
2018-03-01T00:07:00.059Z,9.23
2018-03-01T00:09:27.762Z,4.30
2018-03-01T00:11:56.304Z,7.63
2018-03-01T00:14:24.107Z,8.03
2018-03-01T00:16:52.755Z,8.07
2018-03-01T00:19:20.547Z,7.43
2018-03-01T00:21:48.322Z,7.90
2018-03-01T00:24:16.870Z,6.80
2018-03-01T00:26:44.631Z,6.13
2018-03-01T00:29:12.315Z,6.23
2018-03-01T00:31:40.057Z,7.83
2018-03-01T00:34:07.938Z,6.90
2018-03-01T00:36:35.612Z,6.17
2018-03-01T00:39:03.319Z,6.83
2018-03-01T00:41:30.986Z,6.80
2018-03-01T00:43:58.674Z,7.37
2018-03-01T00:46:26.438Z,7.77
2018-03-01T00:48:54.201Z,7.20
2018-03-01T00:51:21.969Z,7.40
2018-03-01T00:53:49.731Z,7.00
2018-03-01T00:56:17.497Z,6.50
2018-03-01T00:58:45.196Z,3.67
2018-03-01T01:01:13.740Z,8.23
2018-03-01T01:03:41.522Z,5.77
2018-03-01T01:06:09.269Z,6.47
2018-03-01T01:08:37.030Z,7.50
2018-03-01T01:11:04.797Z,5.60
2018-03-01T01:13:32.480Z,6.73
2018-03-01T01:16:01.862Z,7.87
2018-03-01T01:18:29.629Z,7.70
2018-03-01T01:20:57.279Z,8.67
2018-03-01T01:23:24.951Z,8.40
2018-03-01T01:25:52.643Z,7.40
2018-03-01T01:28:20.485Z,9.30
2018-03-01T01:30:48.244Z,7.00
2018-03-01T01:33:16.012Z,6.80
2018-03-01T01:35:43.908Z,7.00
2018-03-01T01:38:12.391Z,3.97
2018-03-01T01:40:41.041Z,7.17
2018-03-01T01:43:08.737Z,6.30
2018-03-01T01:45:37.286Z,5.27
2018-03-01T01:48:04.967Z,5.77
2018-03-01T01:50:44.416Z,4.63
2018-03-01T01:53:12.301Z,5.57
2018-03-01T01:55:40.770Z,6.63
2018-03-01T01:58:09.238Z,8.33
2018-03-01T02:00:37.005Z,7.80
2018-03-01T02:03:04.845Z,7.90
2018-03-01T02:05:32.500Z,6.90
2018-03-01T02:08:00.381Z,5.37
2018-03-01T02:10:28.064Z,7.37
2018-03-01T02:12:55.900Z,6.23
2018-03-01T02:15:23.670Z,6.70
2018-03-01T02:17:51.327Z,7.50
2018-03-01T02:20:19.134Z,5.60
2018-03-01T02:22:47.560Z,4.90
2018-03-01T02:25:15.269Z,5.80
2018-03-01T02:27:43.031Z,8.07
2018-03-01T02:30:17.322Z,6.00
2018-03-01T02:32:44.934Z,6.80
2018-03-01T02:35:13.335Z,7.23
2018-03-01T02:37:40.953Z,7.87
2018-03-01T02:40:08.617Z,5.80
2018-03-01T02:42:37.003Z,5.57
2018-03-01T02:45:05.377Z,4.23
2018-03-01T02:47:33.101Z,4.97
2018-03-01T02:50:00.915Z,5.73
2018-03-01T02:52:29.338Z,7.17
2018-03-01T02:54:56.963Z,8.33
2018-03-01T02:57:24.561Z,6.73
2018-03-01T02:59:52.200Z,4.50
2018-03-01T03:02:20.631Z,6.50
2018-03-01T03:04:49.049Z,6.47
2018-03-01T03:07:16.683Z,6.00
2018-03-01T03:09:45.083Z,6.80
2018-03-01T03:12:13.516Z,6.93
2018-03-01T03:14:41.167Z,6.50
2018-03-01T03:17:08.769Z,7.30
2018-03-01T03:19:37.181Z,5.10
2018-03-01T03:22:04.778Z,6.30
2018-03-01T03:24:32.382Z,7.40
2018-03-01T03:27:01.288Z,7.30
2018-03-01T03:29:28.880Z,6.20
2018-03-01T03:31:56.512Z,5.93
2018-03-01T03:34:24.119Z,7.10
2018-03-01T03:36:51.747Z,6.60
2018-03-01T03:39:19.365Z,6.10
2018-03-01T03:41:47.768Z,7.00
2018-03-01T03:44:15.374Z,5.90
2018-03-01T03:46:43.004Z,5.53
2018-03-01T03:49:10.637Z,6.50
2018-03-01T03:51:39.010Z,6.67
2018-03-01T03:54:07.408Z,6.23
2018-03-01T03:56:35.013Z,8.50
2018-03-01T03:59:02.645Z,6.70
2018-03-01T04:01:30.268Z,6.20
2018-03-01T04:03:58.663Z,7.10
2018-03-01T04:06:27.062Z,7.23
2018-03-01T04:08:54.667Z,6.43
2018-03-01T04:11:22.314Z,5.60
2018-03-01T04:13:49.922Z,5.77
2018-03-01T04:16:18.336Z,7.47
2018-03-01T04:18:45.953Z,7.43
2018-03-01T04:21:14.322Z,6.97
2018-03-01T04:23:41.945Z,7.13
2018-03-01T04:26:09.559Z,7.17
2018-03-01T04:28:37.961Z,9.97
2018-03-01T04:31:05.562Z,6.70
2018-03-01T04:33:33.204Z,6.80
2018-03-01T04:36:00.810Z,6.47
2018-03-01T04:38:28.472Z,6.70
2018-03-01T04:40:56.846Z,5.67
2018-03-01T04:43:25.232Z,8.33
2018-03-01T04:45:53.624Z,6.87
2018-03-01T04:48:21.247Z,8.13
2018-03-01T04:50:48.885Z,6.77
2018-03-01T04:53:16.496Z,5.77
2018-03-01T04:55:44.941Z,8.80
2018-03-01T04:58:13.332Z,6.53
2018-03-01T05:00:41.760Z,7.43
2018-03-01T05:03:09.370Z,5.70
2018-03-01T05:05:36.986Z,6.00
2018-03-01T05:08:04.609Z,7.17
2018-03-01T05:10:32.223Z,5.63
2018-03-01T05:12:59.853Z,6.27
2018-03-01T05:15:27.476Z,5.87
2018-03-01T05:17:55.110Z,7.53
2018-03-01T05:20:22.709Z,6.33
2018-03-01T05:22:50.354Z,9.87
2018-03-01T05:25:17.973Z,6.97
2018-03-01T05:27:45.605Z,4.00
2018-03-01T05:30:13.977Z,5.82
2018-03-01T05:32:42.388Z,7.50
2018-03-01T05:35:10.009Z,6.40
2018-03-01T05:37:37.621Z,6.45
2018-03-01T05:40:05.280Z,8.87
2018-03-01T05:42:32.900Z,6.80
2018-03-01T05:45:01.294Z,5.57
2018-03-01T05:47:28.924Z,4.90
2018-03-01T05:49:56.550Z,6.30
2018-03-01T05:52:24.159Z,6.35
2018-03-01T05:54:52.559Z,7.50
2018-03-01T05:57:20.923Z,4.80
2018-03-01T05:59:49.333Z,6.57
2018-03-01T06:02:16.931Z,4.07
2018-03-01T06:04:44.570Z,6.70
2018-03-01T06:07:12.199Z,5.00
2018-03-01T06:09:39.810Z,6.80
2018-03-01T06:12:07.466Z,6.73
2018-03-01T06:14:35.070Z,6.47
2018-03-01T06:17:03.476Z,5.20
2018-03-01T06:19:31.081Z,6.10
2018-03-01T06:21:58.735Z,6.90
2018-03-01T06:24:26.345Z,6.85
2018-03-01T06:26:53.980Z,7.03
2018-03-01T06:29:21.614Z,7.23
2018-03-01T06:31:49.270Z,6.65
2018-03-01T06:34:16.876Z,6.87
2018-03-01T06:36:45.287Z,6.07
2018-03-01T06:39:12.893Z,5.20
2018-03-01T06:41:40.525Z,8.60
2018-03-01T06:44:08.138Z,7.53
2018-03-01T06:46:36.545Z,7.90
2018-03-01T06:49:04.201Z,6.05
2018-03-01T06:51:31.872Z,7.50
2018-03-01T06:53:59.502Z,7.78
2018-03-01T06:56:27.877Z,7.45
2018-03-01T06:58:56.273Z,5.30
2018-03-01T07:01:23.944Z,5.45
2018-03-01T07:03:52.340Z,7.57
2018-03-01T07:06:19.945Z,5.00
2018-03-01T07:08:47.589Z,6.75
2018-03-01T07:11:15.244Z,5.18
2018-03-01T07:13:42.853Z,7.05
2018-03-01T07:16:11.249Z,5.83
2018-03-01T07:18:38.865Z,4.90
2018-03-01T07:21:06.497Z,5.07
2018-03-01T07:23:34.104Z,6.57
2018-03-01T07:26:02.541Z,4.93
2018-03-01T07:28:30.137Z,6.47
2018-03-01T07:30:57.774Z,6.17
2018-03-01T07:33:25.410Z,6.70
2018-03-01T07:35:53.040Z,4.97
2018-03-01T07:38:21.412Z,6.70
2018-03-01T07:40:49.797Z,5.93
2018-03-01T07:43:18.198Z,7.00
2018-03-01T07:45:45.793Z,4.83
2018-03-01T07:48:13.409Z,5.30
2018-03-01T07:50:41.009Z,7.13
2018-03-01T07:53:08.640Z,4.00
2018-03-01T07:55:36.249Z,6.83
2018-03-01T07:58:03.905Z,4.30
2018-03-01T08:00:31.500Z,6.03
2018-03-01T08:02:59.918Z,4.27
2018-03-01T08:05:27.532Z,7.13
2018-03-01T08:07:55.944Z,4.53
2018-03-01T08:10:23.549Z,3.87
2018-03-01T08:12:51.201Z,5.83
2018-03-01T08:15:18.802Z,5.17
2018-03-01T08:17:47.200Z,5.40
2018-03-01T08:20:14.834Z,5.43
2018-03-01T08:22:43.490Z,4.03
2018-03-01T08:25:11.246Z,5.30
2018-03-01T08:27:39.110Z,3.60
2018-03-01T08:30:06.756Z,6.30
2018-03-01T08:32:34.369Z,4.10
2018-03-01T08:35:02.779Z,5.77
2018-03-01T08:37:30.403Z,4.40
2018-03-01T08:40:01.619Z,5.90
2018-03-01T08:42:30.238Z,3.10
2018-03-01T08:44:58.632Z,5.10
2018-03-01T08:47:27.162Z,6.57
2018-03-01T08:49:54.825Z,5.90
2018-03-01T08:52:22.425Z,5.60
2018-03-01T08:54:50.174Z,3.00
2018-03-01T08:57:19.234Z,7.40
2018-03-01T08:59:46.860Z,7.40
2018-03-01T09:02:15.248Z,6.10
2018-03-01T09:04:42.854Z,6.50
2018-03-01T09:07:10.487Z,6.30
2018-03-01T09:09:38.077Z,4.77
2018-03-01T09:12:05.716Z,5.50
2018-03-01T09:14:33.331Z,6.33
2018-03-01T09:17:02.631Z,3.23
2018-03-01T09:19:31.015Z,3.50
2018-03-01T09:21:59.389Z,5.07
2018-03-01T09:24:27.791Z,5.30
2018-03-01T09:26:55.395Z,6.30
2018-03-01T09:29:23.025Z,5.57
2018-03-01T09:31:50.654Z,3.80
2018-03-01T09:34:19.742Z,5.70
2018-03-01T09:36:48.111Z,4.50
2018-03-01T09:39:16.463Z,6.07
2018-03-01T09:41:44.127Z,6.27
2018-03-01T09:44:11.769Z,4.80
2018-03-01T09:46:39.375Z,6.53
2018-03-01T09:49:06.985Z,3.17
2018-03-01T09:51:34.616Z,3.70
2018-03-01T09:54:02.985Z,5.97
2018-03-01T09:56:31.385Z,3.20
2018-03-01T09:58:58.997Z,5.00
2018-03-01T10:01:26.643Z,4.60
2018-03-01T10:03:54.296Z,5.40
2018-03-01T10:06:21.912Z,2.40
2018-03-01T10:08:50.467Z,3.43
2018-03-01T10:11:18.096Z,4.17
2018-03-01T10:13:45.699Z,4.10
2018-03-01T10:16:14.276Z,4.73
2018-03-01T10:18:42.754Z,6.23
2018-03-01T10:21:10.363Z,5.10
2018-03-01T10:23:38.248Z,4.90
2018-03-01T10:26:05.839Z,5.77
2018-03-01T10:28:38.413Z,4.77
2018-03-01T10:31:06.008Z,5.10
2018-03-01T10:33:40.553Z,4.90
2018-03-01T10:36:08.162Z,6.60
2018-03-01T10:38:35.789Z,3.17
2018-03-01T10:41:03.410Z,4.57
2018-03-01T10:43:31.853Z,5.60
2018-03-01T10:45:59.463Z,4.30
2018-03-01T10:48:27.853Z,3.27
2018-03-01T10:50:55.450Z,3.50
2018-03-01T10:53:23.827Z,4.67
2018-03-01T10:55:51.460Z,4.70
2018-03-01T10:58:19.109Z,5.60
2018-03-01T11:00:47.033Z,4.73
2018-03-01T11:03:14.665Z,3.07
2018-03-01T11:05:42.300Z,3.97
2018-03-01T11:08:10.685Z,6.07
2018-03-01T11:10:38.317Z,3.33
2018-03-01T11:13:06.099Z,3.23
2018-03-01T11:15:34.489Z,3.30
2018-03-01T11:18:02.088Z,5.70
2018-03-01T11:20:29.722Z,3.80
2018-03-01T11:22:57.317Z,2.63
2018-03-01T11:25:24.991Z,4.73
2018-03-01T11:27:52.589Z,3.73
2018-03-01T11:30:20.293Z,3.50
2018-03-01T11:32:47.891Z,3.50
2018-03-01T11:35:16.290Z,3.00
2018-03-01T11:37:44.658Z,4.90
2018-03-01T11:40:13.044Z,3.20
2018-03-01T11:42:41.410Z,2.97
2018-03-01T11:45:09.807Z,3.77
2018-03-01T11:47:37.413Z,3.13
2018-03-01T11:50:05.045Z,2.93
2018-03-01T11:52:32.638Z,4.33
2018-03-01T11:55:00.240Z,1.93
2018-03-01T11:57:28.629Z,2.10
2018-03-01T11:59:56.232Z,3.20
2018-03-01T12:02:23.867Z,2.30
2018-03-01T12:04:51.467Z,3.30
2018-03-01T12:07:19.133Z,3.40
2018-03-01T12:09:46.735Z,3.63
2018-03-01T12:12:14.353Z,3.63
2018-03-01T12:14:44.136Z,3.40
2018-03-01T12:17:11.779Z,2.80
2018-03-01T12:19:39.372Z,3.80
2018-03-01T12:22:07.003Z,3.20
2018-03-01T12:24:34.597Z,3.20
2018-03-01T12:27:02.254Z,3.50
2018-03-01T12:29:29.853Z,2.40
2018-03-01T12:31:58.256Z,4.30
2018-03-01T12:34:25.851Z,3.70
2018-03-01T12:36:53.453Z,4.50
2018-03-01T12:39:21.999Z,3.47
2018-03-01T12:41:49.609Z,1.87
2018-03-01T12:44:17.259Z,2.00
2018-03-01T12:46:45.629Z,1.63
2018-03-01T12:49:14.063Z,3.40
2018-03-01T12:51:41.648Z,4.10
2018-03-01T12:54:09.268Z,3.60
2018-03-01T12:56:36.874Z,3.43
2018-03-01T12:59:04.497Z,3.33
2018-03-01T13:01:32.101Z,4.07
2018-03-01T13:04:01.232Z,3.17
2018-03-01T13:06:28.828Z,2.17
2018-03-01T13:08:56.454Z,4.60
2018-03-01T13:11:24.058Z,4.07
2018-03-01T13:13:51.753Z,1.57
2018-03-01T13:16:19.354Z,4.67
2018-03-01T13:18:46.996Z,2.13
2018-03-01T13:21:14.748Z,3.10
2018-03-01T13:23:43.136Z,2.40
2018-03-01T13:26:11.496Z,2.33
2018-03-01T13:28:39.122Z,3.77
2018-03-01T13:31:11.309Z,2.23
2018-03-01T13:36:39.690Z,4.07
2018-03-01T13:39:07.309Z,2.40
2018-03-01T13:41:34.905Z,3.33
2018-03-01T13:44:02.543Z,3.53
2018-03-01T13:46:31.605Z,4.20
2018-03-01T13:48:59.973Z,2.90
2018-03-01T13:51:29.372Z,3.83
2018-03-01T13:53:58.142Z,5.00
2018-03-01T13:56:25.833Z,4.37
2018-03-01T13:58:53.661Z,3.40
2018-03-01T14:01:21.544Z,3.57
2018-03-01T14:03:49.411Z,3.30
2018-03-01T14:06:29.050Z,2.50
2018-03-01T14:08:57.637Z,4.40
2018-03-01T14:11:25.501Z,4.50
2018-03-01T14:13:53.168Z,3.40
2018-03-01T14:16:20.804Z,3.70
2018-03-01T14:18:54.209Z,2.73
2018-03-01T14:21:27.667Z,3.37
2018-03-01T14:23:56.769Z,3.40
2018-03-01T14:26:30.969Z,2.90
2018-03-01T14:29:04.123Z,3.50
2018-03-01T14:31:31.745Z,3.63
2018-03-01T14:33:59.350Z,3.50
2018-03-01T14:36:27.005Z,3.77
2018-03-01T14:38:54.603Z,2.70
2018-03-01T14:41:22.981Z,4.03
2018-03-01T14:43:51.381Z,3.00
2018-03-01T14:46:19.006Z,3.57
2018-03-01T14:48:47.412Z,2.90
2018-03-01T14:51:15.007Z,1.73
2018-03-01T14:53:42.636Z,1.77
2018-03-01T14:56:10.228Z,2.90
2018-03-01T14:58:37.877Z,3.07
2018-03-01T15:01:05.485Z,3.03
2018-03-01T15:03:33.880Z,1.93
2018-03-01T15:06:02.237Z,3.40
2018-03-01T15:08:29.885Z,2.40
2018-03-01T15:10:57.502Z,2.87
2018-03-01T15:13:25.130Z,2.90
2018-03-01T15:15:53.524Z,3.03
2018-03-01T15:18:21.885Z,4.00
2018-03-01T15:20:50.330Z,3.60
2018-03-01T15:23:18.240Z,4.30
2018-03-01T15:25:45.885Z,3.80
2018-03-01T15:28:13.495Z,2.10
2018-03-01T15:30:41.121Z,2.57
2018-03-01T15:33:09.486Z,3.20
2018-03-01T15:35:37.110Z,4.00
2018-03-01T15:38:04.700Z,4.00
2018-03-01T15:40:32.342Z,3.10
2018-03-01T15:42:59.964Z,2.90
2018-03-01T15:45:28.370Z,3.13
2018-03-01T15:47:56.001Z,2.83
2018-03-01T15:50:23.618Z,3.30
2018-03-01T15:52:51.250Z,3.43
2018-03-01T15:55:18.869Z,3.57
2018-03-01T15:57:46.512Z,3.70
2018-03-01T16:00:14.113Z,4.60
2018-03-01T16:02:42.330Z,4.40
2018-03-01T16:05:10.023Z,3.23
2018-03-01T16:07:37.650Z,2.90
2018-03-01T16:10:05.258Z,1.97
2018-03-01T16:12:33.659Z,3.13
2018-03-01T16:15:01.262Z,2.73
2018-03-01T16:17:28.873Z,3.80
2018-03-01T16:19:56.506Z,2.63
2018-03-01T16:22:25.464Z,3.57
2018-03-01T16:24:53.198Z,3.40
2018-03-01T16:27:20.796Z,3.17
2018-03-01T16:29:48.460Z,2.23
2018-03-01T16:32:16.072Z,3.23
2018-03-01T16:34:43.695Z,3.20
2018-03-01T16:37:11.443Z,3.20
2018-03-01T16:39:39.061Z,2.93
2018-03-01T16:42:06.694Z,1.60
2018-03-01T16:44:35.057Z,1.90
2018-03-01T16:47:02.689Z,3.20
2018-03-01T16:49:30.304Z,2.50
2018-03-01T16:51:58.709Z,3.20
2018-03-01T16:54:26.321Z,4.20
2018-03-01T16:56:53.949Z,3.83
2018-03-01T16:59:21.553Z,2.63
2018-03-01T17:01:49.925Z,2.37
2018-03-01T17:04:17.761Z,1.60
2018-03-01T17:06:45.363Z,2.80
2018-03-01T17:09:13.785Z,2.80
2018-03-01T17:11:41.398Z,1.97
2018-03-01T17:14:09.036Z,2.53
2018-03-01T17:16:36.658Z,2.20
2018-03-01T17:19:04.305Z,2.13
2018-03-01T17:21:32.780Z,1.77
2018-03-01T17:24:00.343Z,2.30
2018-03-01T17:26:29.590Z,2.20
2018-03-01T17:28:58.138Z,2.40
2018-03-01T17:31:26.084Z,2.20
2018-03-01T17:33:53.953Z,2.93
2018-03-01T17:36:21.907Z,2.43
2018-03-01T17:38:49.942Z,3.60
2018-03-01T17:41:17.817Z,2.60
2018-03-01T17:43:47.492Z,2.70
2018-03-01T17:46:17.571Z,1.97
2018-03-01T17:48:47.621Z,3.10
2018-03-01T17:51:17.660Z,1.90
2018-03-01T17:53:46.692Z,1.77
2018-03-01T17:56:17.425Z,1.50
2018-03-01T17:58:47.435Z,2.23
2018-03-01T18:01:17.952Z,2.40
2018-03-01T18:03:46.141Z,2.50
2018-03-01T18:06:14.824Z,2.83
2018-03-01T18:08:43.103Z,1.70
2018-03-01T18:11:10.910Z,3.37
2018-03-01T18:13:38.832Z,2.80
2018-03-01T18:16:06.909Z,2.40
2018-03-01T18:18:34.780Z,3.03
2018-03-01T18:21:02.575Z,2.40
2018-03-01T18:23:31.068Z,1.90
2018-03-01T18:25:58.982Z,3.00
2018-03-01T18:28:26.750Z,2.70
2018-03-01T18:30:54.628Z,2.43
2018-03-01T18:33:22.484Z,3.60
2018-03-01T18:35:50.348Z,2.63
2018-03-01T18:38:18.222Z,2.40
2018-03-01T18:40:46.358Z,2.93
2018-03-01T18:43:14.260Z,2.80
2018-03-01T18:45:42.130Z,1.50
2018-03-01T18:48:09.947Z,2.90
2018-03-01T18:50:37.550Z,1.57
2018-03-01T18:53:05.172Z,2.60
2018-03-01T18:55:32.787Z,2.97
2018-03-01T18:58:00.408Z,2.20
2018-03-01T19:00:28.028Z,3.10
2018-03-01T19:02:56.421Z,3.00
2018-03-01T19:05:24.030Z,2.20
2018-03-01T19:07:51.640Z,3.33
2018-03-01T19:10:19.289Z,3.03
2018-03-01T19:12:47.673Z,3.33
2018-03-01T19:15:16.111Z,3.50
2018-03-01T19:17:43.713Z,2.77
2018-03-01T19:20:12.105Z,2.63
2018-03-01T19:22:39.968Z,3.03
2018-03-01T19:25:07.894Z,4.50
2018-03-01T19:27:35.753Z,3.20
2018-03-01T19:30:03.993Z,3.73
2018-03-01T19:32:31.793Z,3.70
2018-03-01T19:34:59.659Z,4.13
2018-03-01T19:37:27.530Z,3.57
2018-03-01T19:39:55.300Z,3.17
2018-03-01T19:42:23.161Z,1.97
2018-03-01T19:44:51.026Z,2.73
2018-03-01T19:47:18.899Z,2.70
2018-03-01T19:49:46.769Z,3.00
2018-03-01T19:52:14.694Z,3.60
2018-03-01T19:54:42.504Z,3.10
2018-03-01T19:57:10.308Z,3.20
2018-03-01T19:59:37.922Z,2.70
2018-03-01T20:02:05.569Z,4.13
2018-03-01T20:04:33.164Z,3.23
2018-03-01T20:07:01.535Z,2.63
2018-03-01T20:09:29.930Z,3.07
2018-03-01T20:11:58.306Z,4.10
2018-03-01T20:14:26.700Z,3.33
2018-03-01T20:16:54.308Z,3.20
2018-03-01T20:19:22.594Z,3.27
2018-03-01T20:21:50.216Z,3.07
2018-03-01T20:24:18.131Z,3.53
2018-03-01T20:26:45.752Z,3.93
2018-03-01T20:29:13.363Z,2.17
2018-03-01T20:31:41.035Z,3.27
2018-03-01T20:34:09.399Z,3.43
2018-03-01T20:36:37.040Z,3.70
2018-03-01T20:39:04.669Z,3.80
2018-03-01T20:41:32.882Z,3.00
2018-03-01T20:44:01.293Z,1.43
2018-03-01T20:46:29.684Z,3.90
2018-03-01T20:48:57.276Z,3.47
2018-03-01T20:51:24.912Z,2.53
2018-03-01T20:53:52.548Z,4.17
2018-03-01T20:56:20.962Z,4.00
2018-03-01T20:58:48.578Z,2.60
2018-03-01T21:01:16.238Z,3.40
2018-03-01T21:03:44.910Z,3.53
2018-03-01T21:06:12.780Z,3.40
2018-03-01T21:08:40.650Z,2.70
2018-03-01T21:11:08.489Z,2.87
2018-03-01T21:13:36.577Z,4.40
2018-03-01T21:16:04.448Z,5.23
2018-03-01T21:18:32.321Z,3.90
2018-03-01T21:21:00.287Z,3.70
2018-03-01T21:23:28.153Z,3.80
2018-03-01T21:25:56.021Z,4.27
2018-03-01T21:28:24.040Z,4.40
2018-03-01T21:30:51.853Z,4.80
2018-03-01T21:33:19.723Z,4.20
2018-03-01T21:35:47.587Z,4.20
2018-03-01T21:38:15.363Z,3.33
2018-03-01T21:40:48.342Z,4.10
2018-03-01T21:43:16.720Z,3.23
2018-03-01T21:45:44.605Z,3.80
2018-03-01T21:48:12.563Z,4.07
2018-03-01T21:50:40.527Z,3.70
2018-03-01T21:53:08.387Z,3.90
2018-03-01T21:55:36.258Z,2.57
2018-03-01T21:58:04.122Z,2.63
2018-03-01T22:00:31.941Z,4.10
2018-03-01T22:02:59.753Z,3.80
2018-03-01T22:05:27.616Z,3.63
2018-03-01T22:07:55.347Z,4.00
2018-03-01T22:10:23.643Z,4.53
2018-03-01T22:12:51.475Z,4.20
2018-03-01T22:15:19.278Z,3.63
2018-03-01T22:20:39.269Z,4.53
2018-03-01T22:25:40.363Z,4.13
2018-03-01T22:28:08.592Z,4.00
2018-03-01T22:30:36.987Z,4.87
2018-03-01T22:33:05.084Z,5.00
2018-03-01T22:35:33.246Z,4.50
2018-03-01T22:38:01.373Z,4.43
2018-03-01T22:40:29.399Z,4.50
2018-03-01T22:42:57.247Z,4.20
2018-03-01T22:47:59.562Z,4.70
2018-03-01T22:50:29.767Z,4.33
2018-03-01T22:52:57.757Z,5.13
2018-03-01T22:55:25.927Z,4.47
2018-03-01T22:57:53.783Z,4.60
2018-03-01T23:00:33.532Z,3.70
2018-03-01T23:03:01.396Z,4.93
2018-03-01T23:05:29.931Z,2.80
2018-03-01T23:07:57.849Z,5.20
2018-03-01T23:10:25.606Z,3.60
2018-03-01T23:12:53.552Z,3.67
2018-03-01T23:15:21.447Z,4.90
2018-03-01T23:17:49.413Z,4.40
2018-03-01T23:20:17.377Z,5.40
2018-03-01T23:22:47.428Z,3.83
2018-03-01T23:25:15.186Z,4.30
2018-03-01T23:27:42.790Z,4.83
2018-03-01T23:30:10.446Z,4.80
2018-03-01T23:32:38.068Z,3.50
2018-03-01T23:35:05.672Z,4.90
2018-03-01T23:37:33.323Z,4.43
2018-03-01T23:40:00.934Z,4.07
2018-03-01T23:42:29.341Z,5.53
2018-03-01T23:44:57.724Z,5.37
2018-03-01T23:47:26.146Z,5.90
2018-03-01T23:49:53.748Z,4.53
2018-03-01T23:52:21.389Z,4.80
2018-03-01T23:54:48.994Z,3.50
2018-03-01T23:57:16.608Z,5.23
2018-03-01T23:59:44.251Z,5.77
